createdAt,value
2019-04-11T00:00:46.004Z,24.66
2019-04-11T00:03:21.625Z,24.87
2019-04-11T00:05:56.197Z,24.80
2019-04-11T00:08:30.437Z,24.89
2019-04-11T00:11:05.845Z,24.81
2019-04-11T00:13:41.135Z,24.89
2019-04-11T00:16:15.288Z,24.85
2019-04-11T00:18:49.839Z,24.88
2019-04-11T00:21:25.687Z,24.93
2019-04-11T00:24:00.667Z,24.91
2019-04-11T00:26:36.088Z,24.93
2019-04-11T00:29:10.469Z,24.88
2019-04-11T00:31:45.181Z,24.90
2019-04-11T00:34:20.723Z,24.89
2019-04-11T00:36:55.068Z,24.87
2019-04-11T00:39:29.939Z,24.86
2019-04-11T00:42:04.083Z,24.88
2019-04-11T00:44:38.957Z,24.80
2019-04-11T00:47:13.357Z,24.83
2019-04-11T00:49:48.470Z,24.81
2019-04-11T00:52:23.384Z,24.85
2019-04-11T00:54:57.552Z,24.85
2019-04-11T00:57:32.750Z,24.88
2019-04-11T01:00:07.399Z,24.85
2019-04-11T01:02:43.266Z,24.73
2019-04-11T01:05:18.755Z,24.77
2019-04-11T01:07:53.400Z,24.77
2019-04-11T01:10:27.617Z,24.83
2019-04-11T01:13:01.782Z,24.84
2019-04-11T01:15:36.970Z,24.82
2019-04-11T01:18:12.246Z,24.68
2019-04-11T01:20:46.603Z,24.82
2019-04-11T01:23:20.863Z,24.81
2019-04-11T01:25:57.032Z,24.74
2019-04-11T01:28:31.369Z,24.44
2019-04-11T01:31:09.473Z,24.44
2019-04-11T01:33:44.289Z,24.35
2019-04-11T01:36:20.438Z,24.78
2019-04-11T01:38:57.236Z,24.85
2019-04-11T01:41:31.305Z,24.47
2019-04-11T01:44:07.103Z,24.50
2019-04-11T01:46:40.602Z,24.53
2019-04-11T01:49:18.412Z,24.40
2019-04-11T01:51:52.207Z,24.47
2019-04-11T01:54:26.465Z,24.55
2019-04-11T01:57:01.362Z,24.41
2019-04-11T01:59:35.665Z,24.47
2019-04-11T02:02:42.268Z,24.44
2019-04-11T02:05:25.262Z,24.42
2019-04-11T02:07:59.478Z,24.37
2019-04-11T02:10:35.034Z,24.52
2019-04-11T02:13:09.921Z,24.26
2019-04-11T02:15:44.233Z,24.47
2019-04-11T02:18:19.360Z,24.25
2019-04-11T02:20:54.346Z,24.31
2019-04-11T02:23:46.237Z,24.44
2019-04-11T02:26:25.231Z,24.25
2019-04-11T02:28:59.436Z,24.19
2019-04-11T02:31:34.946Z,24.37
2019-04-11T02:34:11.389Z,24.50
2019-04-11T02:36:46.585Z,24.60
2019-04-11T02:39:22.556Z,24.40
2019-04-11T02:41:57.028Z,24.37
2019-04-11T02:44:46.161Z,24.47
2019-04-11T02:47:13.653Z,24.43
2019-04-11T02:49:45.530Z,24.57
2019-04-11T02:52:20.344Z,24.83
2019-04-11T02:54:54.665Z,24.66
2019-04-11T02:57:29.919Z,24.68
2019-04-11T03:00:06.792Z,24.94
2019-04-11T03:02:42.517Z,25.89
2019-04-11T03:05:18.441Z,26.20
2019-04-11T03:07:54.094Z,26.35
2019-04-11T03:10:29.026Z,26.53
2019-04-11T03:13:04.585Z,26.58
2019-04-11T03:15:57.559Z,26.66
2019-04-11T03:18:35.716Z,26.80
2019-04-11T03:20:56.795Z,26.86
2019-04-11T03:23:28.563Z,26.88
2019-04-11T03:26:05.287Z,27.05
2019-04-11T03:28:42.535Z,27.12
2019-04-11T03:31:50.573Z,27.16
2019-04-11T03:39:28.135Z,27.15
2019-04-11T03:41:59.869Z,27.06
2019-04-11T03:44:25.402Z,27.00
2019-04-11T03:47:11.320Z,26.98
2019-04-11T03:49:43.373Z,26.97
2019-04-11T03:52:10.631Z,26.98
2019-04-11T03:54:47.385Z,26.96
2019-04-11T03:57:23.621Z,26.97
2019-04-11T03:59:58.851Z,26.97
2019-04-11T04:02:34.877Z,26.98
2019-04-11T04:05:10.646Z,27.00
2019-04-11T04:07:46.551Z,27.02
2019-04-11T04:10:23.618Z,27.03
2019-04-11T04:12:59.887Z,27.04
2019-04-11T04:16:08.194Z,27.06
2019-04-11T04:18:43.730Z,27.09
2019-04-11T04:21:33.238Z,27.10
2019-04-11T04:24:28.787Z,27.11
2019-04-11T04:27:04.513Z,27.16
2019-04-11T04:29:41.351Z,27.15
2019-04-11T04:32:16.450Z,27.16
2019-04-11T04:34:53.130Z,27.17
2019-04-11T04:37:27.412Z,27.68
2019-04-11T04:40:21.669Z,27.77
2019-04-11T04:42:46.072Z,27.88
2019-04-11T04:45:16.233Z,27.87
2019-04-11T04:47:57.035Z,27.88
2019-04-11T04:50:28.713Z,27.85
2019-04-11T04:53:05.135Z,27.93
2019-04-11T04:55:41.218Z,27.94
2019-04-11T04:58:17.831Z,27.93
2019-04-11T05:00:53.854Z,27.82
2019-04-11T05:03:27.547Z,28.03
2019-04-11T05:06:03.872Z,28.14
2019-04-11T05:08:39.051Z,28.16
2019-04-11T05:11:13.978Z,28.12
2019-04-11T05:13:51.164Z,28.02
2019-04-11T05:16:24.279Z,28.00
2019-04-11T05:18:59.452Z,27.99
2019-04-11T05:21:33.749Z,27.98
2019-04-11T05:24:07.784Z,28.01
2019-04-11T05:26:41.834Z,28.01
2019-04-11T05:29:17.439Z,28.05
2019-04-11T05:31:51.802Z,28.07
2019-04-11T05:34:25.930Z,28.17
2019-04-11T05:37:00.296Z,28.22
2019-04-11T05:39:34.431Z,28.33
2019-04-11T05:42:09.173Z,28.37
2019-04-11T05:44:43.354Z,28.38
2019-04-11T05:47:18.883Z,28.37
2019-04-11T05:50:09.235Z,28.39
2019-04-11T05:52:42.539Z,28.44
2019-04-11T05:55:17.667Z,28.47
2019-04-11T05:57:52.318Z,28.48
2019-04-11T06:00:48.906Z,28.51
2019-04-11T06:03:23.955Z,28.51
2019-04-11T06:06:36.946Z,28.52
2019-04-11T06:09:16.474Z,28.63
2019-04-11T06:12:09.418Z,28.61
2019-04-11T06:14:52.024Z,28.62
2019-04-11T06:17:26.570Z,28.64
2019-04-11T06:20:17.784Z,28.68
2019-04-11T06:23:05.039Z,28.70
2019-04-11T06:26:02.142Z,28.75
2019-04-11T06:28:36.742Z,28.79
2019-04-11T06:31:28.213Z,28.81
2019-04-11T06:34:05.510Z,28.76
2019-04-11T06:36:57.192Z,29.00
2019-04-11T06:39:46.056Z,29.07
2019-04-11T06:42:30.280Z,28.94
2019-04-11T06:45:21.713Z,28.86
2019-04-11T06:48:13.572Z,28.83
2019-04-11T06:51:11.583Z,28.87
2019-04-11T06:53:54.642Z,28.87
2019-04-11T06:56:50.881Z,28.91
2019-04-11T06:59:34.375Z,28.86
2019-04-11T07:02:17.983Z,28.94
2019-04-11T07:05:04.717Z,28.94
2019-04-11T07:07:39.255Z,28.93
2019-04-11T07:10:26.569Z,28.93
2019-04-11T07:13:08.333Z,28.96
2019-04-11T07:15:48.501Z,29.00
2019-04-11T07:18:40.200Z,28.98
2019-04-11T07:21:14.996Z,28.98
2019-04-11T07:24:07.492Z,29.01
2019-04-11T07:26:45.864Z,29.02
2019-04-11T07:29:44.836Z,29.06
2019-04-11T07:32:20.292Z,29.08
2019-04-11T07:35:12.868Z,29.09
2019-04-11T07:37:49.349Z,29.15
2019-04-11T07:40:51.916Z,29.17
2019-04-11T07:43:33.413Z,29.29
2019-04-11T07:46:27.448Z,29.18
2019-04-11T07:49:08.148Z,29.23
2019-04-11T07:51:56.642Z,29.39
2019-04-11T07:54:30.794Z,29.51
2019-04-11T07:57:17.796Z,29.48
2019-04-11T08:00:09.733Z,29.46
2019-04-11T08:03:09.964Z,29.53
2019-04-11T08:06:22.282Z,29.43
2019-04-11T08:09:15.293Z,29.36
2019-04-11T08:11:56.944Z,29.35
2019-04-11T08:14:48.866Z,29.35
2019-04-11T08:17:36.860Z,29.39
2019-04-11T08:20:23.431Z,29.37
2019-04-11T08:23:00.739Z,29.47
2019-04-11T08:25:53.755Z,29.49
2019-04-11T08:28:28.961Z,29.43
2019-04-11T08:31:15.145Z,29.51
2019-04-11T08:33:50.963Z,29.50
2019-04-11T08:37:02.970Z,29.50
2019-04-11T08:39:45.087Z,29.48
2019-04-11T08:42:37.817Z,29.47
2019-04-11T08:45:14.640Z,29.48
2019-04-11T08:47:54.604Z,29.48
2019-04-11T08:50:31.728Z,29.56
2019-04-11T08:53:30.918Z,29.57
2019-04-11T08:56:05.641Z,29.57
2019-04-11T08:58:57.414Z,29.68
2019-04-11T09:01:32.018Z,29.65
2019-04-11T09:04:23.971Z,29.67
2019-04-11T09:06:58.602Z,29.63
2019-04-11T09:10:11.523Z,29.69
2019-04-11T09:12:55.055Z,29.72
2019-04-11T09:15:46.888Z,29.78
2019-04-11T09:18:21.834Z,29.78
2019-04-11T09:21:13.610Z,29.87
2019-04-11T09:23:48.339Z,29.83
2019-04-11T09:26:41.089Z,29.86
2019-04-11T09:29:15.948Z,29.88
2019-04-11T09:32:18.202Z,29.87
2019-04-11T09:34:59.805Z,29.90
2019-04-11T09:37:37.807Z,29.93
2019-04-11T09:40:31.966Z,29.98
2019-04-11T09:43:18.006Z,30.01
2019-04-11T09:46:10.265Z,30.01
2019-04-11T09:49:12.366Z,30.09
2019-04-11T09:52:17.799Z,30.12
2019-04-11T09:54:59.002Z,30.06
2019-04-11T09:57:36.708Z,30.14
2019-04-11T10:00:22.740Z,29.88
2019-04-11T10:03:00.743Z,28.97
2019-04-11T10:05:46.952Z,28.28
2019-04-11T10:08:43.700Z,27.93
2019-04-11T10:11:55.202Z,27.65
2019-04-11T10:14:31.598Z,27.37
2019-04-11T10:17:43.364Z,27.09
2019-04-11T10:20:18.876Z,27.28
2019-04-11T10:23:12.438Z,26.82
2019-04-11T10:26:05.450Z,27.03
2019-04-11T10:28:58.060Z,27.20
2019-04-11T10:31:34.715Z,26.98
2019-04-11T10:34:24.371Z,26.90
2019-04-11T10:37:09.589Z,26.83
2019-04-11T10:40:02.036Z,26.42
2019-04-11T10:42:36.837Z,26.59
2019-04-11T10:45:20.603Z,26.48
2019-04-11T10:48:01.230Z,26.49
2019-04-11T10:50:53.153Z,26.36
2019-04-11T10:53:28.173Z,26.32
2019-04-11T10:56:22.163Z,26.26
2019-04-11T10:58:59.443Z,26.23
2019-04-11T11:02:04.796Z,26.40
2019-04-11T11:04:48.838Z,26.41
2019-04-11T11:07:28.697Z,25.90
2019-04-11T11:10:09.234Z,26.34
2019-04-11T11:13:14.252Z,26.31
2019-04-11T11:15:52.868Z,25.79
2019-04-11T11:19:15.337Z,26.23
2019-04-11T11:21:29.744Z,25.72
2019-04-11T11:24:20.058Z,25.87
2019-04-11T11:26:57.925Z,25.74
2019-04-11T11:29:47.718Z,25.61
2019-04-11T11:32:31.585Z,25.60
2019-04-11T11:35:28.302Z,25.74
2019-04-11T11:38:07.851Z,25.46
2019-04-11T11:41:03.822Z,25.75
2019-04-11T11:43:39.091Z,25.68
2019-04-11T11:46:40.426Z,25.57
2019-04-11T11:49:36.267Z,25.66
2019-04-11T11:52:13.691Z,25.79
2019-04-11T11:54:53.651Z,25.63
2019-04-11T11:57:59.201Z,25.57
2019-04-11T12:00:34.746Z,25.55
2019-04-11T12:03:26.433Z,25.62
2019-04-11T12:06:05.378Z,25.71
2019-04-11T12:08:58.226Z,25.51
2019-04-11T12:11:30.949Z,25.75
2019-04-11T12:14:27.479Z,25.43
2019-04-11T12:17:11.866Z,25.73
2019-04-11T12:20:16.394Z,25.54
2019-04-11T12:22:52.103Z,25.61
2019-04-11T12:25:33.495Z,25.56
2019-04-11T12:28:25.726Z,25.62
2019-04-11T12:31:07.146Z,25.56
2019-04-11T12:34:08.541Z,25.33
2019-04-11T12:36:50.137Z,25.30
2019-04-11T12:39:42.054Z,25.54
2019-04-11T12:42:22.264Z,25.62
2019-04-11T12:45:33.791Z,25.74
2019-04-11T12:48:11.918Z,25.26
2019-04-11T12:51:02.964Z,25.58
2019-04-11T12:53:36.937Z,25.55
2019-04-11T12:56:30.797Z,25.69
2019-04-11T12:59:17.363Z,25.79
2019-04-11T13:02:08.144Z,25.38
2019-04-11T13:04:46.725Z,25.37
2019-04-11T13:07:45.397Z,25.94
2019-04-11T13:10:24.207Z,27.45
2019-04-11T13:13:20.102Z,28.12
2019-04-11T13:16:22.838Z,28.35
2019-04-11T13:19:04.596Z,28.51
2019-04-11T13:21:46.136Z,28.75
2019-04-11T13:24:39.492Z,28.87
2019-04-11T13:27:32.546Z,28.88
2019-04-11T13:30:24.930Z,29.09
2019-04-11T13:33:01.012Z,29.19
2019-04-11T13:35:53.844Z,29.31
2019-04-11T13:38:37.516Z,29.33
2019-04-11T13:41:29.554Z,29.43
2019-04-11T13:44:21.960Z,29.47
2019-04-11T13:47:20.549Z,29.57
2019-04-11T13:50:00.664Z,29.60
2019-04-11T13:52:49.366Z,29.70
2019-04-11T13:55:28.344Z,29.77
2019-04-11T13:58:19.632Z,29.83
2019-04-11T14:01:01.742Z,29.82
2019-04-11T14:04:01.254Z,29.87
2019-04-11T14:06:37.128Z,29.77
2019-04-11T14:09:34.384Z,29.90
2019-04-11T14:12:12.710Z,30.00
2019-04-11T14:15:06.359Z,29.77
2019-04-11T14:17:51.417Z,29.56
2019-04-11T14:20:41.787Z,29.43
2019-04-11T14:23:34.141Z,29.36
2019-04-11T14:26:29.854Z,29.30
2019-04-11T14:29:32.279Z,29.29
2019-04-11T14:32:25.012Z,29.28
2019-04-11T14:35:16.142Z,29.26
2019-04-11T14:38:09.195Z,29.25
2019-04-11T14:41:01.827Z,29.26
2019-04-11T14:43:45.894Z,29.26
2019-04-11T14:46:38.080Z,29.27
2019-04-11T14:49:16.723Z,29.27
2019-04-11T14:52:08.639Z,29.28
2019-04-11T14:54:49.276Z,29.29
2019-04-11T14:57:31.572Z,29.29
2019-04-11T15:00:17.516Z,29.30
2019-04-11T15:03:04.164Z,29.31
2019-04-11T15:05:46.457Z,29.33
2019-04-11T15:08:38.766Z,29.33
2019-04-11T15:11:27.664Z,29.35
2019-04-11T15:14:12.675Z,29.36
2019-04-11T15:17:04.601Z,29.37
2019-04-11T15:19:38.728Z,29.39
2019-04-11T15:22:25.211Z,29.41
2019-04-11T15:25:07.811Z,29.40
2019-04-11T15:28:12.360Z,29.42
2019-04-11T15:30:48.222Z,29.43
2019-04-11T15:33:47.865Z,29.45
2019-04-11T15:36:22.501Z,29.45
2019-04-11T15:39:18.338Z,29.47
2019-04-11T15:42:01.445Z,29.49
2019-04-11T15:44:48.920Z,30.47
2019-04-11T15:47:23.208Z,30.41
2019-04-11T15:50:16.182Z,30.46
2019-04-11T15:52:55.239Z,30.42
2019-04-11T15:55:58.298Z,30.48
2019-04-11T15:58:42.442Z,30.53
2019-04-11T16:01:35.067Z,30.49
2019-04-11T16:04:22.802Z,30.68
2019-04-11T16:07:22.365Z,29.63
2019-04-11T16:09:56.953Z,28.77
2019-04-11T16:12:39.640Z,27.83
2019-04-11T16:15:16.120Z,27.33
2019-04-11T16:18:15.824Z,27.43
2019-04-11T16:20:51.820Z,26.66
2019-04-11T16:23:43.542Z,26.77
2019-04-11T16:26:22.195Z,26.39
2019-04-11T16:29:16.097Z,26.54
2019-04-11T16:31:50.387Z,26.16
2019-04-11T16:34:48.551Z,26.23
2019-04-11T16:37:19.329Z,25.85
2019-04-11T16:40:14.879Z,25.91
2019-04-11T16:42:53.879Z,25.61
2019-04-11T16:45:45.633Z,25.59
2019-04-11T16:48:19.547Z,25.52
2019-04-11T16:50:53.763Z,25.75
2019-04-11T16:53:27.994Z,25.61
2019-04-11T16:56:02.374Z,25.50
2019-04-11T16:58:36.384Z,25.56
2019-04-11T17:01:10.638Z,25.81
2019-04-11T17:03:44.845Z,25.56
2019-04-11T17:06:40.360Z,25.44
2019-04-11T17:09:26.621Z,25.43
2019-04-11T17:11:59.504Z,25.63
2019-04-11T17:14:33.810Z,25.36
2019-04-11T17:17:14.940Z,25.20
2019-04-11T17:19:44.028Z,25.49
2019-04-11T17:22:18.913Z,25.24
2019-04-11T17:24:53.588Z,25.12
2019-04-11T17:27:27.630Z,25.25
2019-04-11T17:30:01.890Z,25.19
2019-04-11T17:32:36.065Z,25.00
2019-04-11T17:35:10.287Z,25.10
2019-04-11T17:37:44.583Z,24.94
2019-04-11T17:40:18.683Z,25.16
2019-04-11T17:42:52.892Z,25.25
2019-04-11T17:45:27.173Z,25.11
2019-04-11T17:48:01.483Z,25.03
2019-04-11T17:50:35.845Z,25.04
2019-04-11T17:53:09.936Z,25.15
2019-04-11T17:55:44.051Z,25.17
2019-04-11T17:58:18.460Z,25.39
2019-04-11T18:01:00.510Z,25.22
2019-04-11T18:03:35.533Z,24.88
2019-04-11T18:06:10.624Z,24.78
2019-04-11T18:08:46.618Z,24.89
2019-04-11T18:11:20.785Z,25.10
2019-04-11T18:13:55.191Z,25.22
2019-04-11T18:16:31.680Z,25.08
2019-04-11T18:19:06.055Z,25.26
2019-04-11T18:21:40.872Z,24.95
2019-04-11T18:24:15.147Z,25.57
2019-04-11T18:26:51.761Z,25.93
2019-04-11T18:29:25.728Z,25.76
2019-04-11T18:32:00.071Z,25.29
2019-04-11T18:34:34.457Z,25.40
2019-04-11T18:37:09.004Z,25.19
2019-04-11T18:39:43.416Z,24.93
2019-04-11T18:42:17.732Z,25.15
2019-04-11T18:44:51.924Z,25.03
2019-04-11T18:47:27.205Z,24.89
2019-04-11T18:50:01.379Z,24.73
2019-04-11T18:52:36.804Z,24.88
2019-04-11T18:55:11.304Z,24.73
2019-04-11T18:57:45.688Z,24.72
2019-04-11T19:00:21.845Z,24.68
2019-04-11T19:02:56.314Z,24.70
2019-04-11T19:05:30.646Z,24.59
2019-04-11T19:08:04.939Z,25.39
2019-04-11T19:10:39.357Z,24.58
2019-04-11T19:13:16.696Z,24.71
2019-04-11T19:15:49.436Z,24.83
2019-04-11T19:18:23.883Z,24.76
2019-04-11T19:20:58.084Z,24.38
2019-04-11T19:23:32.296Z,24.68
2019-04-11T19:26:06.472Z,24.56
2019-04-11T19:28:40.736Z,24.65
2019-04-11T19:31:15.049Z,24.85
2019-04-11T19:33:48.910Z,24.67
2019-04-11T19:36:23.161Z,24.68
2019-04-11T19:38:57.153Z,24.80
2019-04-11T19:41:31.505Z,24.92
2019-04-11T19:44:06.021Z,24.93
2019-04-11T19:46:40.994Z,24.92
2019-04-11T19:49:15.098Z,24.71
2019-04-11T19:51:50.871Z,25.10
2019-04-11T19:54:26.068Z,24.80
2019-04-11T19:57:09.618Z,24.56
2019-04-11T19:59:43.785Z,24.58
2019-04-11T20:02:17.791Z,25.33
2019-04-11T20:04:51.797Z,24.33
2019-04-11T20:07:26.018Z,24.25
2019-04-11T20:10:00.899Z,24.25
2019-04-11T20:12:36.550Z,25.28
2019-04-11T20:15:10.651Z,24.44
2019-04-11T20:17:45.103Z,24.49
2019-04-11T20:20:19.379Z,24.10
2019-04-11T20:22:59.148Z,23.88
2019-04-11T20:25:29.463Z,23.88
2019-04-11T20:28:03.686Z,23.82
2019-04-11T20:30:37.876Z,24.37
2019-04-11T20:33:11.868Z,24.02
2019-04-11T20:35:46.206Z,23.95
2019-04-11T20:38:20.357Z,23.84
2019-04-11T20:40:54.309Z,24.40
2019-04-11T20:43:29.551Z,24.29
2019-04-11T20:46:05.233Z,24.83
2019-04-11T20:48:40.004Z,24.83
2019-04-11T20:51:14.442Z,24.83
2019-04-11T20:53:48.766Z,24.36
2019-04-11T20:56:24.487Z,24.84
2019-04-11T20:58:59.331Z,24.53
2019-04-11T21:01:33.467Z,24.69
2019-04-11T21:04:07.723Z,23.73
2019-04-11T21:06:42.012Z,24.48
2019-04-11T21:09:16.409Z,24.45
2019-04-11T21:11:50.712Z,24.34
2019-04-11T21:14:24.675Z,24.54
2019-04-11T21:16:58.885Z,24.31
2019-04-11T21:19:32.889Z,24.85
2019-04-11T21:22:07.190Z,24.68
2019-04-11T21:24:41.640Z,24.69
2019-04-11T21:27:15.592Z,24.84
2019-04-11T21:29:49.800Z,24.21
2019-04-11T21:32:23.854Z,24.34
2019-04-11T21:35:01.741Z,24.27
2019-04-11T21:37:36.639Z,24.71
2019-04-11T21:40:10.519Z,24.38
2019-04-11T21:42:44.805Z,24.48
2019-04-11T21:45:18.985Z,24.31
2019-04-11T21:47:59.470Z,24.38
2019-04-11T21:50:33.927Z,24.60
2019-04-11T21:53:08.247Z,24.35
2019-04-11T21:55:47.438Z,24.53
2019-04-11T21:58:20.111Z,24.30
2019-04-11T22:01:01.268Z,24.23
2019-04-11T22:03:36.920Z,24.13
2019-04-11T22:06:11.083Z,23.80
2019-04-11T22:08:45.547Z,24.07
2019-04-11T22:11:19.920Z,23.76
2019-04-11T22:13:54.154Z,23.99
2019-04-11T22:16:28.538Z,24.10
2019-04-11T22:19:03.122Z,24.26
2019-04-11T22:21:37.284Z,24.23
2019-04-11T22:24:11.628Z,24.55
2019-04-11T22:26:50.189Z,24.54
2019-04-11T22:29:24.847Z,24.53
2019-04-11T22:31:58.188Z,24.54
2019-04-11T22:34:44.092Z,24.44
2019-04-11T22:37:18.282Z,23.89
2019-04-11T22:39:52.445Z,24.19
2019-04-11T22:42:26.914Z,24.20
2019-04-11T22:45:01.101Z,24.40
2019-04-11T22:47:35.972Z,24.43
2019-04-11T22:50:11.413Z,24.45
2019-04-11T22:52:45.951Z,24.34
2019-04-11T22:55:20.336Z,24.48
2019-04-11T22:57:54.729Z,24.48
2019-04-11T23:00:28.825Z,24.66
2019-04-11T23:03:21.673Z,23.51
2019-04-11T23:05:54.308Z,24.76
2019-04-11T23:08:28.490Z,24.57
2019-04-11T23:11:02.764Z,24.48
2019-04-11T23:13:37.095Z,24.37
2019-04-11T23:16:12.027Z,24.02
2019-04-11T23:18:47.076Z,24.01
2019-04-11T23:21:20.996Z,24.26
2019-04-11T23:23:55.125Z,24.26
2019-04-11T23:26:29.277Z,24.29
2019-04-11T23:29:03.213Z,24.25
2019-04-11T23:31:37.397Z,23.96
2019-04-11T23:34:11.922Z,24.31
2019-04-11T23:36:45.760Z,24.30
2019-04-11T23:39:22.668Z,24.04
2019-04-11T23:41:56.149Z,24.35
2019-04-11T23:44:30.499Z,23.87
2019-04-11T23:47:04.733Z,23.90
2019-04-11T23:49:39.031Z,24.17
2019-04-11T23:52:13.339Z,24.39
2019-04-11T23:54:47.721Z,24.16
2019-04-11T23:57:21.901Z,24.45
2019-04-11T23:59:56.217Z,24.25
